• Join FlightAware (Why Join?)
  • Login
  • US Flag 
09:36PM EST


 

Airport Tracker/Info


-or-


 

Live Flight TrackerFlight Track Log ✈ DAL110 ✈ 20-Sep-2013 ✈ SAEZ / EZE - KATL

Flight Track Log - Related Links

Times and Time Zones

All times are in EDT time to prevent confusion due to time zone crossing. See the DAL110 flight status page for this flight to view local times or setup timezone preferences in your user account.

Time Position Orientation Groundspeed Altitude Reporting Facility
EDT Latitude Longitude Course Direction KTS MPH feet Rate Location/Type
07:37PM -34.7104 -58.5817 339° North  Level FlightAware Approximate
07:38PM -34.5973 -58.6344 339° North  Level FlightAware Approximate
07:39PM -34.4842 -58.6869 339° North  Level FlightAware Approximate
07:40PM -34.3711 -58.7394 339° North  Level FlightAware Approximate
07:41PM -34.2574 -58.7919 339° North  Level FlightAware Approximate
07:42PM -34.1437 -58.8443 339° North  Level FlightAware Approximate
07:43PM -34.0299 -58.8966 339° North  Level FlightAware Approximate
07:44PM -33.9162 -58.9487 339° North  Level FlightAware Approximate
07:45PM -33.8024 -59.0007 339° North  Level FlightAware Approximate
07:46PM -33.6885 -59.0526 339° North  Level FlightAware Approximate
07:47PM -33.5747 -59.1043 339° North  Level FlightAware Approximate
07:48PM -33.4608 -59.1558 339° North  Level FlightAware Approximate
07:49PM -33.3445 -59.2087 339° North  Level FlightAware Approximate
07:50PM -33.2308 -59.2606 339° North  Level FlightAware Approximate
07:51PM -33.1171 -59.3124 339° North  Level FlightAware Approximate
07:52PM -33.0033 -59.3640 339° North  Level FlightAware Approximate
07:53PM -32.8895 -59.4155 339° North  Level FlightAware Approximate
07:54PM -32.7757 -59.4668 339° North  Level FlightAware Approximate
07:55PM -32.6619 -59.5181 339° North  Level FlightAware Approximate
07:56PM -32.5481 -59.5692 339° North  Level FlightAware Approximate
07:57PM -32.4342 -59.6201 339° North  Level FlightAware Approximate
07:58PM -32.3203 -59.6710 339° North  Level FlightAware Approximate
07:59PM -32.2064 -59.7217 339° North  Level FlightAware Approximate
08:00PM -32.0925 -59.7723 339° North  Level FlightAware Approximate
08:01PM -31.9786 -59.8227 339° North  Level FlightAware Approximate
08:02PM -31.8646 -59.8731 339° North  Level FlightAware Approximate
08:03PM -31.7506 -59.9233 339° North  Level FlightAware Approximate
08:04PM -31.6366 -59.9734 339° North  Level FlightAware Approximate
08:05PM -31.5226 -60.0233 340° North  Level FlightAware Approximate
08:06PM -31.4086 -60.0732 340° North  Level FlightAware Approximate
08:07PM -31.2945 -60.1229 340° North  Level FlightAware Approximate
08:08PM -31.1804 -60.1725 340° North  Level FlightAware Approximate
08:09PM -31.0663 -60.2220 340° North  Level FlightAware Approximate
08:10PM -30.9522 -60.2713 340° North  Level FlightAware Approximate
08:11PM -30.8381 -60.3206 340° North  Level FlightAware Approximate
08:12PM -30.7239 -60.3697 340° North  Level FlightAware Approximate
08:13PM -30.6097 -60.4187 340° North  Level FlightAware Approximate
08:14PM -30.4956 -60.4676 340° North  Level FlightAware Approximate
08:15PM -30.3813 -60.5164 340° North  Level FlightAware Approximate
08:16PM -30.2671 -60.5650 340° North  Level FlightAware Approximate
08:17PM -30.1529 -60.6136 340° North  Level FlightAware Approximate
08:18PM -30.0386 -60.6620 340° North  Level FlightAware Approximate
08:19PM -29.9243 -60.7104 340° North  Level FlightAware Approximate
08:20PM -29.8100 -60.7586 340° North  Level FlightAware Approximate
08:21PM -29.6957 -60.8067 340° North  Level FlightAware Approximate
08:22PM -29.5814 -60.8547 340° North  Level FlightAware Approximate
08:23PM -29.4670 -60.9026 340° North  Level FlightAware Approximate
08:24PM -29.3526 -60.9504 340° North  Level FlightAware Approximate
08:25PM -29.2383 -60.9981 340° North  Level FlightAware Approximate
08:26PM -29.1239 -61.0456 340° North  Level FlightAware Approximate
08:27PM -29.0095 -61.0931 340° North  Level FlightAware Approximate
08:28PM -28.8950 -61.1404 340° North  Level FlightAware Approximate
08:29PM -28.7806 -61.1877 340° North  Level FlightAware Approximate
08:30PM -28.6661 -61.2348 340° North  Level FlightAware Approximate
08:31PM -28.5516 -61.2819 340° North  Level FlightAware Approximate
08:32PM -28.4371 -61.3288 340° North  Level FlightAware Approximate
08:33PM -28.3226 -61.3757 340° North  Level FlightAware Approximate
08:34PM -28.2081 -61.4224 340° North  Level FlightAware Approximate
08:35PM -28.0935 -61.4691 340° North  Level FlightAware Approximate
08:36PM -27.9790 -61.5156 340° North  Level FlightAware Approximate
08:37PM -27.8644 -61.5620 340° North  Level FlightAware Approximate
08:38PM -27.7498 -61.6084 340° North  Level FlightAware Approximate
08:39PM -27.6352 -61.6547 340° North  Level FlightAware Approximate
08:40PM -27.5205 -61.7008 340° North  Level FlightAware Approximate
08:41PM -27.4059 -61.7469 340° North  Level FlightAware Approximate
08:42PM -27.2912 -61.7928 340° North  Level FlightAware Approximate
08:43PM -27.1766 -61.8387 340° North  Level FlightAware Approximate
08:44PM -27.0619 -61.8845 340° North  Level FlightAware Approximate
08:45PM -26.9472 -61.9301 340° North  Level FlightAware Approximate
08:46PM -26.8325 -61.9757 340° North  Level FlightAware Approximate
08:47PM -26.7177 -62.0212 340° North  Level FlightAware Approximate
08:48PM -26.6030 -62.0666 341° North  Level FlightAware Approximate
08:49PM -26.4882 -62.1119 341° North  Level FlightAware Approximate
08:50PM -26.3734 -62.1572 341° North  Level FlightAware Approximate
08:51PM -26.2587 -62.2023 341° North  Level FlightAware Approximate
08:52PM -26.1439 -62.2473 341° North  Level FlightAware Approximate
08:53PM -26.0290 -62.2923 341° North  Level FlightAware Approximate
08:54PM -25.9142 -62.3371 341° North  Level FlightAware Approximate
08:55PM -25.7994 -62.3819 341° North  Level FlightAware Approximate
08:56PM -25.6845 -62.4266 341° North  Level FlightAware Approximate
08:57PM -25.5696 -62.4712 341° North  Level FlightAware Approximate
08:58PM -25.4548 -62.5157 341° North  Level FlightAware Approximate
08:59PM -25.3399 -62.5602 341° North  Level FlightAware Approximate
09:00PM -25.2250 -62.6045 341° North  Level FlightAware Approximate
09:01PM -25.1100 -62.6488 341° North  Level FlightAware Approximate
09:02PM -24.9951 -62.6930 341° North  Level FlightAware Approximate
09:03PM -24.8801 -62.7371 341° North  Level FlightAware Approximate
09:04PM -24.7652 -62.7811 341° North  Level FlightAware Approximate
09:05PM -24.6502 -62.8250 341° North  Level FlightAware Approximate
09:06PM -24.5352 -62.8689 341° North  Level FlightAware Approximate
09:07PM -24.4202 -62.9127 341° North  Level FlightAware Approximate
09:08PM -24.3052 -62.9564 341° North  Level FlightAware Approximate
09:09PM -24.1902 -63.0000 341° North  Level FlightAware Approximate
09:10PM -24.0751 -63.0435 341° North  Level FlightAware Approximate
09:11PM -23.9601 -63.0870 341° North  Level FlightAware Approximate
09:12PM -23.8450 -63.1304 341° North  Level FlightAware Approximate
09:13PM -23.7299 -63.1737 341° North  Level FlightAware Approximate
09:14PM -23.6148 -63.2169 341° North  Level FlightAware Approximate
09:15PM -23.4998 -63.2601 341° North  Level FlightAware Approximate
09:16PM -23.3846 -63.3032 341° North  Level FlightAware Approximate
09:17PM -23.2695 -63.3461 341° North  Level FlightAware Approximate
09:18PM -23.1544 -63.3891 341° North  Level FlightAware Approximate
09:19PM -23.0392 -63.4319 341° North  Level FlightAware Approximate
09:20PM -22.9241 -63.4747 341° North  Level FlightAware Approximate
09:21PM -22.8089 -63.5174 341° North  Level FlightAware Approximate
09:22PM -22.6937 -63.5601 341° North  Level FlightAware Approximate
09:23PM -22.5785 -63.6026 341° North  Level FlightAware Approximate
09:24PM -22.4633 -63.6451 341° North  Level FlightAware Approximate
09:25PM -22.3481 -63.6876 341° North  Level FlightAware Approximate
09:26PM -22.2329 -63.7299 341° North  Level FlightAware Approximate
09:27PM -22.1177 -63.7722 341° North  Level FlightAware Approximate
09:28PM -22.0024 -63.8144 341° North  Level FlightAware Approximate
09:29PM -21.8871 -63.8566 341° North  Level FlightAware Approximate
09:30PM -21.7719 -63.8987 341° North  Level FlightAware Approximate
09:31PM -21.6566 -63.9407 341° North  Level FlightAware Approximate
09:32PM -21.5413 -63.9826 341° North  Level FlightAware Approximate
09:33PM -21.4260 -64.0245 341° North  Level FlightAware Approximate
09:34PM -21.3107 -64.0663 341° North  Level FlightAware Approximate
09:35PM -21.1954 -64.1080 341° North  Level FlightAware Approximate
09:36PM -21.0800 -64.1497 341° North  Level FlightAware Approximate
09:37PM -20.9647 -64.1914 341° North  Level FlightAware Approximate
09:38PM -20.8494 -64.2329 341° North  Level FlightAware Approximate
09:39PM -20.7340 -64.2744 341° North  Level FlightAware Approximate
09:40PM -20.6186 -64.3158 341° North  Level FlightAware Approximate
09:41PM -20.5033 -64.3572 341° North  Level FlightAware Approximate
09:42PM -20.3879 -64.3985 341° North  Level FlightAware Approximate
09:43PM -20.2725 -64.4397 341° North  Level FlightAware Approximate
09:44PM -20.1570 -64.4809 341° North  Level FlightAware Approximate
09:45PM -20.0416 -64.5220 341° North  Level FlightAware Approximate
09:46PM -19.9262 -64.5631 342° North  Level FlightAware Approximate
09:47PM -19.8108 -64.6041 342° North  Level FlightAware Approximate
09:48PM -19.6953 -64.6450 342° North  Level FlightAware Approximate
09:49PM -19.5798 -64.6859 342° North  Level FlightAware Approximate
09:50PM -19.4644 -64.7267 342° North  Level FlightAware Approximate
09:51PM -19.3489 -64.7675 342° North  Level FlightAware Approximate
09:52PM -19.2334 -64.8082 342° North  Level FlightAware Approximate
09:53PM -19.1179 -64.8488 342° North  Level FlightAware Approximate
09:54PM -19.0024 -64.8894 342° North  Level FlightAware Approximate
09:55PM -18.8869 -64.9299 342° North  Level FlightAware Approximate
09:56PM -18.7714 -64.9704 342° North  Level FlightAware Approximate
09:57PM -18.6559 -65.0108 342° North  Level FlightAware Approximate
09:58PM -18.5403 -65.0512 342° North  Level FlightAware Approximate
09:59PM -18.4248 -65.0915 342° North  Level FlightAware Approximate
10:00PM -18.3092 -65.1318 342° North  Level FlightAware Approximate
10:01PM -18.1937 -65.1720 342° North  Level FlightAware Approximate
10:02PM -18.0781 -65.2121 342° North  Level FlightAware Approximate
10:03PM -17.9625 -65.2522 342° North  Level FlightAware Approximate
10:04PM -17.8469 -65.2923 342° North  Level FlightAware Approximate
10:05PM -17.7313 -65.3323 342° North  Level FlightAware Approximate
10:06PM -17.6157 -65.3722 342° North  Level FlightAware Approximate
10:07PM -17.5001 -65.4121 342° North  Level FlightAware Approximate
10:08PM -17.3845 -65.4520 342° North  Level FlightAware Approximate
10:09PM -17.2689 -65.4917 342° North  Level FlightAware Approximate
10:10PM -17.1532 -65.5315 342° North  Level FlightAware Approximate
10:11PM -17.0376 -65.5712 342° North  Level FlightAware Approximate
10:12PM -16.9219 -65.6108 342° North  Level FlightAware Approximate
10:13PM -16.8063 -65.6504 342° North  Level FlightAware Approximate
10:14PM -16.6906 -65.6899 342° North  Level FlightAware Approximate
10:15PM -16.5749 -65.7294 342° North  Level FlightAware Approximate
10:16PM -16.4593 -65.7689 342° North  Level FlightAware Approximate
10:17PM -16.3436 -65.8083 342° North  Level FlightAware Approximate
10:18PM -16.2279 -65.8477 342° North  Level FlightAware Approximate
10:19PM -16.1122 -65.8870 342° North  Level FlightAware Approximate
10:20PM -15.9965 -65.9262 342° North  Level FlightAware Approximate
10:21PM -15.8807 -65.9654 342° North  Level FlightAware Approximate
10:22PM -15.7650 -66.0046 342° North  Level FlightAware Approximate
10:23PM -15.6493 -66.0437 342° North  Level FlightAware Approximate
10:24PM -15.5336 -66.0828 342° North  Level FlightAware Approximate
10:25PM -15.4178 -66.1219 342° North  Level FlightAware Approximate
10:26PM -15.3020 -66.1609 342° North  Level FlightAware Approximate
10:27PM -15.1863 -66.1998 342° North  Level FlightAware Approximate
10:28PM -15.0705 -66.2387 342° North  Level FlightAware Approximate
10:29PM -14.9548 -66.2776 342° North  Level FlightAware Approximate
10:30PM -14.8390 -66.3164 342° North  Level FlightAware Approximate
10:31PM -14.7232 -66.3552 342° North  Level FlightAware Approximate
10:32PM -14.6074 -66.3940 342° North  Level FlightAware Approximate
10:33PM -14.4916 -66.4327 342° North  Level FlightAware Approximate
10:34PM -14.3758 -66.4713 342° North  Level FlightAware Approximate
10:35PM -14.2600 -66.5099 342° North  Level FlightAware Approximate
10:36PM -14.1442 -66.5485 342° North  Level FlightAware Approximate
10:37PM -14.0283 -66.5871 342° North  Level FlightAware Approximate
10:38PM -13.9125 -66.6256 342° North  Level FlightAware Approximate
10:39PM -13.7967 -66.6640 342° North  Level FlightAware Approximate
10:40PM -13.6808 -66.7025 342° North  Level FlightAware Approximate
10:41PM -13.5650 -66.7409 342° North  Level FlightAware Approximate
10:42PM -13.4491 -66.7792 342° North  Level FlightAware Approximate
10:43PM -13.3333 -66.8175 342° North  Level FlightAware Approximate
10:44PM -13.2174 -66.8558 342° North  Level FlightAware Approximate
10:45PM -13.1015 -66.8941 342° North  Level FlightAware Approximate
10:46PM -12.9857 -66.9323 342° North  Level FlightAware Approximate
10:47PM -12.8698 -66.9704 342° North  Level FlightAware Approximate
10:48PM -12.7539 -67.0086 342° North  Level FlightAware Approximate
10:49PM -12.6380 -67.0467 342° North  Level FlightAware Approximate
10:50PM -12.5221 -67.0847 342° North  Level FlightAware Approximate
10:51PM -12.4062 -67.1228 342° North  Level FlightAware Approximate
10:52PM -12.2903 -67.1608 342° North  Level FlightAware Approximate
10:53PM -12.1744 -67.1987 342° North  Level FlightAware Approximate
10:54PM -12.0585 -67.2367 342° North  Level FlightAware Approximate
10:55PM -11.9425 -67.2746 342° North  Level FlightAware Approximate
10:56PM -11.8266 -67.3124 342° North  Level FlightAware Approximate
10:57PM -11.7107 -67.3503 342° North  Level FlightAware Approximate
10:58PM -11.5947 -67.3881 342° North  Level FlightAware Approximate
10:59PM -11.4788 -67.4258 342° North  Level FlightAware Approximate
11:00PM -11.3629 -67.4636 342° North  Level FlightAware Approximate
11:01PM -11.2469 -67.5013 342° North  Level FlightAware Approximate
11:02PM -11.1309 -67.5390 342° North  Level FlightAware Approximate
11:03PM -11.0150 -67.5766 342° North  Level FlightAware Approximate
11:04PM -10.8990 -67.6143 342° North  Level FlightAware Approximate
11:05PM -10.7830 -67.6518 342° North  Level FlightAware Approximate
11:06PM -10.6671 -67.6894 342° North  Level FlightAware Approximate
11:07PM -10.5511 -67.7269 342° North  Level FlightAware Approximate
11:08PM -10.4351 -67.7644 342° North  Level FlightAware Approximate
11:09PM -10.3191 -67.8019 342° North  Level FlightAware Approximate
11:10PM -10.2031 -67.8394 342° North  Level FlightAware Approximate
11:11PM -10.0871 -67.8768 342° North  Level FlightAware Approximate
11:12PM -9.9711 -67.9142 342° North  Level FlightAware Approximate
11:13PM -9.8551 -67.9516 342° North  Level FlightAware Approximate
11:14PM -9.7391 -67.9889 342° North  Level FlightAware Approximate
11:15PM -9.6231 -68.0262 342° North  Level FlightAware Approximate
11:16PM -9.5070 -68.0635 342° North  Level FlightAware Approximate
11:17PM -9.3910 -68.1008 342° North  Level FlightAware Approximate
11:18PM -9.2750 -68.1380 342° North  Level FlightAware Approximate
11:19PM -9.1590 -68.1752 342° North  Level FlightAware Approximate
11:20PM -9.0429 -68.2124 342° North  Level FlightAware Approximate
11:21PM -8.9269 -68.2496 342° North  Level FlightAware Approximate
11:22PM -8.8109 -68.2867 342° North  Level FlightAware Approximate
11:23PM -8.6948 -68.3239 342° North  Level FlightAware Approximate
11:24PM -8.5788 -68.3610 342° North  Level FlightAware Approximate
11:25PM -8.4627 -68.3980 342° North  Level FlightAware Approximate
11:26PM -8.3467 -68.4351 342° North  Level FlightAware Approximate
11:27PM -8.2306 -68.4721 342° North  Level FlightAware Approximate
11:28PM -8.1145 -68.5091 342° North  Level FlightAware Approximate
11:29PM -7.9985 -68.5461 342° North  Level FlightAware Approximate
11:30PM -7.8824 -68.5831 342° North  Level FlightAware Approximate
11:31PM -7.7663 -68.6200 342° North  Level FlightAware Approximate
11:32PM -7.6502 -68.6570 343° North  Level FlightAware Approximate
11:33PM -7.5342 -68.6939 343° North  Level FlightAware Approximate
11:34PM -7.4181 -68.7308 343° North  Level FlightAware Approximate
11:35PM -7.3020 -68.7676 343° North  Level FlightAware Approximate
11:36PM -7.1859 -68.8045 343° North  Level FlightAware Approximate
11:37PM -7.0698 -68.8413 343° North  Level FlightAware Approximate
11:38PM -6.9537 -68.8781 343° North  Level FlightAware Approximate
11:39PM -6.8376 -68.9149 343° North  Level FlightAware Approximate
11:40PM -6.7215 -68.9517 343° North  Level FlightAware Approximate
11:41PM -6.6054 -68.9884 343° North  Level FlightAware Approximate
11:42PM -6.4893 -69.0252 343° North  Level FlightAware Approximate
11:43PM -6.3732 -69.0619 343° North  Level FlightAware Approximate
11:44PM -6.2571 -69.0986 343° North  Level FlightAware Approximate
11:45PM -6.1410 -69.1353 343° North  Level FlightAware Approximate
11:46PM -6.0249 -69.1720 343° North  Level FlightAware Approximate
11:47PM -5.9087 -69.2086 343° North  Level FlightAware Approximate
11:48PM -5.7926 -69.2453 343° North  Level FlightAware Approximate
11:49PM -5.6765 -69.2819 343° North  Level FlightAware Approximate
11:50PM -5.5604 -69.3185 343° North  Level FlightAware Approximate
11:51PM -5.4442 -69.3551 343° North  Level FlightAware Approximate
11:52PM -5.3281 -69.3917 343° North  Level FlightAware Approximate
11:53PM -5.2120 -69.4283 343° North  Level FlightAware Approximate
11:54PM -5.0958 -69.4648 343° North  Level FlightAware Approximate
11:55PM -4.9797 -69.5014 343° North  Level FlightAware Approximate
11:56PM -4.8636 -69.5379 343° North  Level FlightAware Approximate
11:57PM -4.7474 -69.5744 343° North  Level FlightAware Approximate
11:58PM -4.6313 -69.6109 343° North  Level FlightAware Approximate
11:59PM -4.5152 -69.6474 343° North  Level FlightAware Approximate
12:00AM -4.3990 -69.6839 343° North  Level FlightAware Approximate
12:01AM -4.2828 -69.7204 343° North  Level FlightAware Approximate
12:02AM -4.1667 -69.7568 343° North  Level FlightAware Approximate
12:03AM -4.0505 -69.7933 343° North  Level FlightAware Approximate
12:04AM -3.9344 -69.8297 343° North  Level FlightAware Approximate
12:05AM -3.8182 -69.8661 343° North  Level FlightAware Approximate
12:06AM -3.7021 -69.9026 343° North  Level FlightAware Approximate
12:07AM -3.5859 -69.9390 343° North  Level FlightAware Approximate
12:08AM -3.4698 -69.9754 343° North  Level FlightAware Approximate
12:09AM -3.3536 -70.0118 343° North  Level FlightAware Approximate
12:10AM -3.2374 -70.0481 343° North  Level FlightAware Approximate
12:11AM -3.1213 -70.0845 343° North  Level FlightAware Approximate
12:12AM -3.0051 -70.1209 343° North  Level FlightAware Approximate
12:13AM -2.8890 -70.1572 343° North  Level FlightAware Approximate
12:14AM -2.7728 -70.1936 343° North  Level FlightAware Approximate
12:15AM -2.6566 -70.2299 343° North  Level FlightAware Approximate
12:16AM -2.5405 -70.2663 343° North  Level FlightAware Approximate
12:17AM -2.4243 -70.3026 343° North  Level FlightAware Approximate
12:18AM -2.3081 -70.3389 343° North  Level FlightAware Approximate
12:19AM -2.1919 -70.3752 343° North  Level FlightAware Approximate
12:20AM -2.0758 -70.4116 343° North  Level FlightAware Approximate
12:21AM -1.9596 -70.4479 343° North  Level FlightAware Approximate
12:22AM -1.8434 -70.4842 343° North  Level FlightAware Approximate
12:23AM -1.7273 -70.5205 343° North  Level FlightAware Approximate
12:24AM -1.6111 -70.5567 343° North  Level FlightAware Approximate
12:25AM -1.4949 -70.5930 343° North  Level FlightAware Approximate
12:26AM -1.3787 -70.6293 343° North  Level FlightAware Approximate
12:27AM -1.2625 -70.6656 343° North  Level FlightAware Approximate
12:28AM -1.1464 -70.7019 343° North  Level FlightAware Approximate
12:29AM -1.0302 -70.7382 343° North  Level FlightAware Approximate
12:30AM -0.9140 -70.7744 343° North  Level FlightAware Approximate
12:31AM -0.7978 -70.8107 343° North  Level FlightAware Approximate
12:32AM -0.6816 -70.8470 343° North  Level FlightAware Approximate
12:33AM -0.5655 -70.8832 343° North  Level FlightAware Approximate
12:34AM -0.4493 -70.9195 343° North  Level FlightAware Approximate
12:35AM -0.3331 -70.9557 343° North  Level FlightAware Approximate
12:36AM -0.2169 -70.9920 343° North  Level FlightAware Approximate
12:37AM -0.1007 -71.0283 343° North  Level FlightAware Approximate
12:38AM 0.0154 -71.0645 343° North  Level FlightAware Approximate
12:39AM 0.1316 -71.1008 343° North  Level FlightAware Approximate
12:40AM 0.2478 -71.1370 343° North  Level FlightAware Approximate
12:41AM 0.3640 -71.1733 343° North  Level FlightAware Approximate
12:42AM 0.4802 -71.2096 343° North  Level FlightAware Approximate
12:43AM 0.5963 -71.2458 343° North  Level FlightAware Approximate
12:44AM 0.7125 -71.2821 343° North  Level FlightAware Approximate
12:45AM 0.8287 -71.3184 343° North  Level FlightAware Approximate
12:46AM 0.9449 -71.3546 343° North  Level FlightAware Approximate
12:47AM 1.0611 -71.3909 343° North  Level FlightAware Approximate
12:48AM 1.1772 -71.4272 343° North  Level FlightAware Approximate
12:49AM 1.2934 -71.4635 343° North  Level FlightAware Approximate
12:50AM 1.4096 -71.4997 343° North  Level FlightAware Approximate
12:51AM 1.5258 -71.5360 343° North  Level FlightAware Approximate
12:52AM 1.6420 -71.5723 343° North  Level FlightAware Approximate
12:53AM 1.7581 -71.6086 343° North  Level FlightAware Approximate
12:54AM 1.8743 -71.6449 343° North  Level FlightAware Approximate
12:55AM 1.9905 -71.6812 343° North  Level FlightAware Approximate
12:56AM 2.1067 -71.7175 343° North  Level FlightAware Approximate
12:57AM 2.2228 -71.7538 343° North  Level FlightAware Approximate
12:58AM 2.3390 -71.7902 343° North  Level FlightAware Approximate
12:59AM 2.4552 -71.8265 343° North  Level FlightAware Approximate
01:00AM 2.5713 -71.8628 343° North  Level FlightAware Approximate
01:01AM 2.6875 -71.8991 343° North  Level FlightAware Approximate
01:02AM 2.8037 -71.9355 343° North  Level FlightAware Approximate
01:03AM 2.9198 -71.9718 343° North  Level FlightAware Approximate
01:04AM 3.0360 -72.0082 343° North  Level FlightAware Approximate
01:05AM 3.1522 -72.0446 343° North  Level FlightAware Approximate
01:06AM 3.2683 -72.0809 343° North  Level FlightAware Approximate
01:07AM 3.3845 -72.1173 343° North  Level FlightAware Approximate
01:08AM 3.5006 -72.1537 343° North  Level FlightAware Approximate
01:09AM 3.6168 -72.1901 343° North  Level FlightAware Approximate
01:10AM 3.7330 -72.2265 343° North  Level FlightAware Approximate
01:11AM 3.8491 -72.2629 343° North  Level FlightAware Approximate
01:12AM 3.9653 -72.2994 343° North  Level FlightAware Approximate
01:13AM 4.0814 -72.3358 343° North  Level FlightAware Approximate
01:14AM 4.1976 -72.3723 343° North  Level FlightAware Approximate
01:15AM 4.3137 -72.4087 343° North  Level FlightAware Approximate
01:16AM 4.4299 -72.4452 343° North  Level FlightAware Approximate
01:17AM 4.5460 -72.4817 343° North  Level FlightAware Approximate
01:18AM 4.6622 -72.5182 343° North  Level FlightAware Approximate
01:19AM 4.7783 -72.5547 343° North  Level FlightAware Approximate
01:20AM 4.8944 -72.5912 343° North  Level FlightAware Approximate
01:21AM 5.0106 -72.6277 343° North  Level FlightAware Approximate
01:22AM 5.1267 -72.6643 343° North  Level FlightAware Approximate
01:23AM 5.2428 -72.7009 343° North  Level FlightAware Approximate
01:24AM 5.3590 -72.7374 343° North  Level FlightAware Approximate
01:25AM 5.4751 -72.7740 343° North  Level FlightAware Approximate
01:26AM 5.5912 -72.8106 343° North  Level FlightAware Approximate
01:27AM 5.7074 -72.8472 343° North  Level FlightAware Approximate
01:28AM 5.8235 -72.8839 343° North  Level FlightAware Approximate
01:29AM 5.9396 -72.9205 343° North  Level FlightAware Approximate
01:30AM 6.0557 -72.9572 343° North  Level FlightAware Approximate
01:31AM 6.1718 -72.9939 343° North  Level FlightAware Approximate
01:32AM 6.2880 -73.0305 343° North  Level FlightAware Approximate
01:33AM 6.4041 -73.0673 343° North  Level FlightAware Approximate
01:34AM 6.5202 -73.1040 343° North  Level FlightAware Approximate
01:35AM 6.6363 -73.1407 343° North  Level FlightAware Approximate
01:36AM 6.7524 -73.1775 343° North  Level FlightAware Approximate
01:37AM 6.8685 -73.2143 343° North  Level FlightAware Approximate
01:38AM 6.9846 -73.2511 343° North  Level FlightAware Approximate
01:39AM 7.1007 -73.2879 343° North  Level FlightAware Approximate
01:40AM 7.2168 -73.3247 343° North  Level FlightAware Approximate
01:41AM 7.3328 -73.3615 343° North  Level FlightAware Approximate
01:42AM 7.4489 -73.3984 343° North  Level FlightAware Approximate
01:43AM 7.5650 -73.4353 343° North  Level FlightAware Approximate
01:44AM 7.6811 -73.4722 343° North  Level FlightAware Approximate
01:45AM 7.7972 -73.5091 343° North  Level FlightAware Approximate
01:46AM 7.9132 -73.5461 342° North  Level FlightAware Approximate
01:47AM 8.0293 -73.5831 342° North  Level FlightAware Approximate
01:48AM 8.1454 -73.6201 342° North  Level FlightAware Approximate
01:49AM 8.2614 -73.6571 342° North  Level FlightAware Approximate
01:50AM 8.3775 -73.6941 342° North  Level FlightAware Approximate
01:51AM 8.4936 -73.7312 342° North  Level FlightAware Approximate
01:52AM 8.6096 -73.7683 342° North  Level FlightAware Approximate
01:53AM 8.7256 -73.8054 342° North  Level FlightAware Approximate
01:54AM 8.8417 -73.8425 342° North  Level FlightAware Approximate
01:55AM 8.9577 -73.8796 342° North  Level FlightAware Approximate
01:56AM 9.0738 -73.9168 342° North  Level FlightAware Approximate
01:57AM 9.1898 -73.9540 342° North  Level FlightAware Approximate
01:58AM 9.3058 -73.9912 342° North  Level FlightAware Approximate
01:59AM 9.4219 -74.0285 342° North  Level FlightAware Approximate
02:00AM 9.5379 -74.0658 342° North  Level FlightAware Approximate
02:01AM 9.6539 -74.1031 342° North  Level FlightAware Approximate
02:02AM 9.7699 -74.1404 342° North  Level FlightAware Approximate
02:03AM 9.8859 -74.1777 342° North  Level FlightAware Approximate
02:04AM 10.0019 -74.2151 342° North  Level FlightAware Approximate
02:05AM 10.1179 -74.2525 342° North  Level FlightAware Approximate
02:06AM 10.2339 -74.2899 342° North  Level FlightAware Approximate
02:07AM 10.3499 -74.3275 342° North  Level FlightAware Approximate
02:08AM 10.4658 -74.3652 342° North  Level FlightAware Approximate
02:09AM 10.5817 -74.4029 342° North  Level FlightAware Approximate
02:10AM 10.6976 -74.4407 342° North  Level FlightAware Approximate
02:11AM 10.8135 -74.4784 342° North  Level FlightAware Approximate
02:12AM 10.9294 -74.5162 342° North  Level FlightAware Approximate
02:13AM 11.0453 -74.5541 342° North  Level FlightAware Approximate
02:14AM 11.1612 -74.5919 342° North  Level FlightAware Approximate
02:15AM 11.2771 -74.6299 342° North  Level FlightAware Approximate
02:16AM 11.3930 -74.6678 342° North  Level FlightAware Approximate
02:17AM 11.5089 -74.7057 342° North  Level FlightAware Approximate
02:18AM 11.6247 -74.7437 342° North  Level FlightAware Approximate
02:19AM 11.7406 -74.7818 342° North  Level FlightAware Approximate
02:20AM 11.8565 -74.8198 342° North  Level FlightAware Approximate
02:21AM 11.9723 -74.8579 342° North  Level FlightAware Approximate
02:22AM 12.0882 -74.8960 342° North  Level FlightAware Approximate
02:23AM 12.2040 -74.9342 342° North  Level FlightAware Approximate
02:24AM 12.3199 -74.9724 342° North  Level FlightAware Approximate
02:25AM 12.4357 -75.0106 342° North  Level FlightAware Approximate
02:26AM 12.5515 -75.0489 342° North  Level FlightAware Approximate
02:27AM 12.6674 -75.0872 342° North  Level FlightAware Approximate
02:28AM 12.7832 -75.1255 342° North  Level FlightAware Approximate
02:29AM 12.8990 -75.1638 342° North  Level FlightAware Approximate
02:30AM 13.0148 -75.2022 342° North  Level FlightAware Approximate
02:31AM 13.1306 -75.2407 342° North  Level FlightAware Approximate
02:32AM 13.2464 -75.2792 342° North  Level FlightAware Approximate
02:33AM 13.3622 -75.3177 342° North  Level FlightAware Approximate
02:34AM 13.4780 -75.3562 342° North  Level FlightAware Approximate
02:35AM 13.5938 -75.3948 342° North  Level FlightAware Approximate
02:36AM 13.7096 -75.4334 342° North  Level FlightAware Approximate
02:37AM 13.8253 -75.4721 342° North  Level FlightAware Approximate
02:38AM 13.9411 -75.5108 342° North  Level FlightAware Approximate
02:39AM 14.0569 -75.5495 342° North  Level FlightAware Approximate
02:40AM 14.1726 -75.5883 342° North  Level FlightAware Approximate
02:41AM 14.2884 -75.6271 342° North  Level FlightAware Approximate
02:42AM 14.4041 -75.6659 342° North  Level FlightAware Approximate
02:43AM 14.5198 -75.7048 342° North  Level FlightAware Approximate
02:44AM 14.6356 -75.7438 342° North  Level FlightAware Approximate
02:45AM 14.7513 -75.7828 342° North  Level FlightAware Approximate
02:46AM 14.8670 -75.8218 342° North  Level FlightAware Approximate
02:47AM 14.9827 -75.8608 342° North  Level FlightAware Approximate
02:48AM 15.0985 -75.8996 342° North  Level FlightAware Approximate
02:49AM 15.2143 -75.9384 342° North  Level FlightAware Approximate
02:50AM 15.3301 -75.9773 342° North  Level FlightAware Approximate
02:51AM 15.4459 -76.0162 342° North  Level FlightAware Approximate
02:52AM 15.5617 -76.0551 342° North  Level FlightAware Approximate
02:53AM 15.6775 -76.0941 342° North  Level FlightAware Approximate
02:54AM 15.7932 -76.1331 342° North  Level FlightAware Approximate
02:55AM 15.9090 -76.1721 342° North  Level FlightAware Approximate
02:56AM 16.0247 -76.2113 342° North  Level FlightAware Approximate
02:57AM 16.1405 -76.2504 342° North  Level FlightAware Approximate
02:58AM 16.2562 -76.2896 342° North  Level FlightAware Approximate
02:59AM 16.3720 -76.3289 342° North  Level FlightAware Approximate
03:00AM 16.4877 -76.3681 342° North  Level FlightAware Approximate
03:01AM 16.6035 -76.4072 342° North  Level FlightAware Approximate
03:02AM 16.7193 -76.4463 342° North  Level FlightAware Approximate
03:03AM 16.8351 -76.4854 342° North  Level FlightAware Approximate
03:04AM 16.9509 -76.5246 342° North  Level FlightAware Approximate
03:05AM 17.0667 -76.5638 342° North  Level FlightAware Approximate
03:06AM 17.1824 -76.6031 342° North  Level FlightAware Approximate
03:07AM 17.2982 -76.6424 342° North  Level FlightAware Approximate
03:08AM 17.4140 -76.6818 342° North  Level FlightAware Approximate
03:09AM 17.5297 -76.7212 342° North  Level FlightAware Approximate
03:10AM 17.6455 -76.7607 342° North  Level FlightAware Approximate
03:11AM 17.7612 -76.8002 342° North  Level FlightAware Approximate
03:12AM 17.8769 -76.8398 342° North  Level FlightAware Approximate
03:13AM 17.9927 -76.8794 342° North  Level FlightAware Approximate
03:14AM 18.1084 -76.9191 342° North  Level FlightAware Approximate
03:15AM 18.2241 -76.9588 342° North  Level FlightAware Approximate
03:16AM 18.3398 -76.9986 342° North  Level FlightAware Approximate
03:17AM 18.4555 -77.0385 342° North  Level FlightAware Approximate
03:18AM 18.5711 -77.0784 342° North  Level FlightAware Approximate
03:19AM 18.6868 -77.1183 342° North  Level FlightAware Approximate
03:20AM 18.8025 -77.1583 342° North  Level FlightAware Approximate
03:21AM 18.9181 -77.1984 342° North  Level FlightAware Approximate
03:22AM 19.0338 -77.2385 342° North  Level FlightAware Approximate
03:23AM 19.1494 -77.2786 342° North  Level FlightAware Approximate
03:24AM 19.2650 -77.3189 342° North  Level FlightAware Approximate
03:25AM 19.3807 -77.3592 342° North  Level FlightAware Approximate
03:26AM 19.4962 -77.3998 341° North  Level FlightAware Approximate
03:27AM 19.6115 -77.4409 341° North  Level FlightAware Approximate
03:28AM 19.7269 -77.4821 341° North  Level FlightAware Approximate
03:29AM 19.8423 -77.5233 341° North  Level FlightAware Approximate
03:30AM 19.9576 -77.5646 341° North  Level FlightAware Approximate
03:31AM 20.0730 -77.6060 341° North  Level FlightAware Approximate
03:32AM 20.1883 -77.6474 341° North  Level FlightAware Approximate
03:33AM 20.3036 -77.6889 341° North  Level FlightAware Approximate
03:34AM 20.4189 -77.7304 341° North  Level FlightAware Approximate
03:35AM 20.5342 -77.7720 341° North  Level FlightAware Approximate
03:36AM 20.6495 -77.8137 341° North  Level FlightAware Approximate
03:37AM 20.7648 -77.8555 341° North  Level FlightAware Approximate
03:38AM 20.8801 -77.8972 341° North  Level FlightAware Approximate
03:39AM 20.9953 -77.9391 341° North  Level FlightAware Approximate
03:40AM 21.1106 -77.9810 341° North  Level FlightAware Approximate
03:41AM 21.2258 -78.0230 341° North  Level FlightAware Approximate
03:42AM 21.3410 -78.0651 341° North  Level FlightAware Approximate
03:43AM 21.4562 -78.1072 341° North  Level FlightAware Approximate
03:44AM 21.5714 -78.1494 341° North  Level FlightAware Approximate
03:45AM 21.6866 -78.1917 341° North  Level FlightAware Approximate
03:46AM 21.8018 -78.2340 341° North  Level FlightAware Approximate
03:47AM 21.9170 -78.2761 341° North  Level FlightAware Approximate
03:48AM 22.0323 -78.3183 341° North  Level FlightAware Approximate
03:49AM 22.1475 -78.3606 341° North  Level FlightAware Approximate
03:50AM 22.2628 -78.4029 341° North  Level FlightAware Approximate
03:51AM 22.3780 -78.4453 341° North  Level FlightAware Approximate
03:52AM 22.4932 -78.4878 341° North  Level FlightAware Approximate
03:52AM 23.2261 -78.1725 341° North 467 537 38,000  Level Miami Center
03:53AM 22.6084 -78.5303 341° North  Level FlightAware Approximate
03:53AM 23.3489 -78.2236 339° North 453 521 38,000  Level Miami Center
03:54AM 22.7235 -78.5729 341° North  Level FlightAware Approximate
03:54AM 23.4656 -78.2633 343° North 451 519 38,000  Level Miami Center
03:55AM 22.8387 -78.6156 341° North  Level FlightAware Approximate
03:55AM 23.5822 -78.3031 343° North 456 525 38,000  Level Miami Center
03:56AM 22.9539 -78.6583 341° North  Level FlightAware Approximate
03:56AM 23.7008 -78.3475 341° North 445 512 38,000  Level Miami Center
03:57AM 23.0690 -78.7012 341° North  Level FlightAware Approximate
03:57AM 23.8175 -78.3919 341° North 445 512 38,000  Level Miami Center
03:58AM 23.9319 -78.4344 341° North 439 505 38,000  Level Miami Center
03:59AM 24.0403 -78.4789 339° North 428 493 38,000  Level Miami Center
04:00AM 24.1503 -78.5372 334° Northwest 428 493 38,000  Level Miami Center
04:01AM 24.2625 -78.5867 338° Northwest 428 493 38,000  Level Miami Center
04:02AM 24.3706 -78.6383 336° Northwest 428 493 38,000  Level Miami Center
04:03AM 24.4725 -78.6878 336° Northwest 420 483 38,000  Level Miami Center
04:04AM 24.5847 -78.7397 337° Northwest 420 483 38,000  Level Miami Center
04:05AM 24.6947 -78.7917 337° Northwest 420 483 38,000  Level Miami Center
04:06AM 24.8153 -78.8483 337° Northwest 420 483 38,000  Level Miami Center
04:07AM 24.9253 -78.9006 337° Northwest 414 476 38,000  Level Miami Center
04:08AM 25.0331 -78.9506 337° Northwest 414 476 38,000  Level Miami Center
04:09AM 25.1433 -78.9983 339° North 419 482 38,000  Level Miami Center
04:10AM 25.2531 -79.0531 336° Northwest 419 482 38,000  Level Miami Center
04:11AM 25.3611 -79.1033 337° Northwest 419 482 38,000  Level Miami Center
04:12AM 25.4689 -79.1558 336° Northwest 419 482 38,000  Level Miami Center
04:13AM 25.5789 -79.2064 337° Northwest 419 482 38,000  Level Miami Center
04:14AM 25.6867 -79.2614 335° Northwest 414 476 38,000  Level Miami Center
04:15AM 25.7903 -79.3119 336° Northwest 407 468 38,000  Level Miami Center
04:16AM 25.8836 -79.3578 336° Northwest 407 468 38,000  Level Miami Center
04:17AM 26.0017 -79.4158 336° Northwest 415 478 38,000  Level Miami Center
04:18AM 26.1072 -79.4644 338° Northwest 415 478 38,000  Level Miami Center
04:19AM 26.2128 -79.5175 336° Northwest 415 478 38,000  Level Miami Center
04:20AM 26.3142 -79.5661 337° Northwest 408 470 38,000  Level Miami Center
04:21AM 26.4178 -79.6172 336° Northwest 403 464 38,000  Level Miami Center
04:22AM 26.5211 -79.6683 336° Northwest 403 464 38,000  Level Miami Center
04:23AM 26.6267 -79.7219 336° Northwest 403 464 38,000  Level Miami Center
04:24AM 26.7303 -79.7733 336° Northwest 403 464 38,000  Level Miami Center
04:25AM 26.8317 -79.8203 338° Northwest 393 452 38,000  Level Miami Center
04:26AM 26.9267 -79.8669 336° Northwest 399 459 38,000  Level Miami Center
04:27AM 27.0319 -79.9208 335° Northwest 399 459 38,000  Level Miami Center
04:28AM 27.1478 -79.9822 335° Northwest 404 465 38,000  Level Miami Center
04:29AM 27.2508 -80.0364 335° Northwest 404 465 38,000  Level Miami Center
04:30AM 27.3564 -80.0861 337° Northwest 404 465 38,000  Level Miami Center
04:31AM 27.4617 -80.1383 336° Northwest 404 465 38,000  Level Miami Center
04:32AM 27.5647 -80.1881 337° Northwest 404 465 38,000  Level Miami Center
04:33AM 27.6597 -80.2353 336° Northwest 410 472 38,000  Level Miami Center
04:34AM 27.7608 -80.2875 335° Northwest 410 472 38,000  Level Miami Center
04:35AM 27.8661 -80.3331 339° North 405 466 38,000  Level Miami Center
04:36AM 27.9794 -80.3928 335° Northwest 405 466 38,000  Level Miami Center
04:37AM 28.0806 -80.4456 335° Northwest 405 466 38,000  Level Miami Center
04:38AM 28.1814 -80.4981 335° Northwest 398 458 38,000  Level Miami Center
04:39AM 28.3672 -80.5925 336° Northwest 391 450 38,000  Level Jacksonville Center
04:40AM 28.4642 -80.6400 337° Northwest 404 465 38,000  Level Jacksonville Center
04:41AM 28.5653 -80.6944 335° Northwest 404 465 38,000  Level Jacksonville Center
04:42AM 28.6683 -80.7464 336° Northwest 404 465 38,000  Level Jacksonville Center
04:43AM 28.7714 -80.8011 335° Northwest 404 465 38,000  Level Jacksonville Center
04:44AM 28.8747 -80.8536 336° Northwest 404 465 38,000  Level Jacksonville Center
04:45AM 28.9778 -80.9083 335° Northwest 404 465 38,000  Level Jacksonville Center
04:46AM 29.0828 -80.9586 337° Northwest 404 465 38,000  Level Jacksonville Center
04:47AM 29.1881 -81.0136 335° Northwest 404 465 38,000  Level Jacksonville Center
04:48AM 29.2889 -81.0664 335° Northwest 404 465 38,000  Level Jacksonville Center
04:49AM 29.3919 -81.1192 336° Northwest 404 465 38,000  Level Jacksonville Center
04:50AM 29.4950 -81.1769 334° Northwest 404 465 38,000  Level Jacksonville Center
04:51AM 29.5981 -81.2325 335° Northwest 404 465 38,000  Level Jacksonville Center
04:52AM 29.7011 -81.2858 336° Northwest 404 465 38,000  Level Jacksonville Center
04:53AM 29.8061 -81.3392 336° Northwest 404 465 38,000  Level Jacksonville Center
04:54AM 29.9089 -81.3903 337° Northwest 404 465 38,000  Level Jacksonville Center
04:55AM 30.0119 -81.4461 335° Northwest 404 465 38,000  Level Jacksonville Center
04:56AM 30.1169 -81.5022 335° Northwest 404 465 38,000  Level Jacksonville Center
04:57AM 30.2178 -81.5536 336° Northwest 404 465 38,000  Level Jacksonville Center
04:58AM 30.3247 -81.6075 336° Northwest 404 465 38,000  Level Jacksonville Center
04:59AM 30.4297 -81.6614 336° Northwest 404 465 38,000  Level Jacksonville Center
05:00AM 30.5325 -81.7181 335° Northwest 403 464 38,000  Level Jacksonville Center
05:01AM 30.6481 -81.7819 335° Northwest 403 464 38,000  Level Jacksonville Center
05:02AM 30.7528 -81.8386 335° Northwest 403 464 38,000  Level Jacksonville Center
05:03AM 30.8556 -81.8931 336° Northwest 403 464 38,000  Level Jacksonville Center
05:04AM 30.9603 -81.9525 334° Northwest 403 464 38,000  Level Jacksonville Center
05:05AM 31.0631 -82.0072 335° Northwest 403 464 38,000  Level Jacksonville Center
05:06AM 31.1658 -82.0647 334° Northwest 403 464 38,000  Level Jacksonville Center
05:07AM 31.2706 -82.1197 336° Northwest 403 464 38,000  Level Jacksonville Center
05:08AM 31.3753 -82.1794 334° Northwest 403 464 38,000  Level Jacksonville Center
05:09AM 31.4800 -82.2347 336° Northwest 403 464 38,000  Level Jacksonville Center
05:12AM 31.7039 -82.3547 335° Northwest 404 465 38,000  Level Atlanta Center
05:13AM 31.8089 -82.4114 335° Northwest 404 465 38,000  Level Atlanta Center
05:14AM 31.9139 -82.4706 334° Northwest 404 465 38,000  Level Atlanta Center
05:15AM 32.0089 -82.5497 325° Northwest 409 471 38,000  Level Atlanta Center
05:16AM 32.0914 -82.6389 318° Northwest 409 471 38,000 -600 Level Atlanta Center
05:17AM 32.1800 -82.7283 320° Northwest 409 471 36,800 -1,560 Descending Atlanta Center
05:18AM 32.2664 -82.8181 319° Northwest 415 478 34,900 -2,340 Descending Atlanta Center
05:19AM 32.3614 -82.9150 319° Northwest 426 490 32,200 -2,700 Descending Atlanta Center
05:20AM 32.4561 -83.0122 319° Northwest 437 503 29,500 -2,460 Descending Atlanta Center
05:21AM 32.5508 -83.1122 318° Northwest 443 510 27,300 -2,280 Descending Atlanta Center
05:22AM 32.6433 -83.2100 318° Northwest 443 510 25,000 -2,340 Descending Atlanta Center
05:23AM 32.7294 -83.3006 319° Northwest 437 503 22,700 -2,340 Descending Atlanta Center
05:24AM 32.8136 -83.3864 319° Northwest 415 478 20,400 -2,100 Descending Atlanta Center
05:25AM 32.8975 -83.4722 319° Northwest 404 465 18,600 -1,800 Descending Atlanta Center
05:26AM 32.9731 -83.5536 318° Northwest 389 448 16,800 -1,740 Descending Atlanta Center
05:27AM 33.0525 -83.6422 317° Northwest 377 434 15,200 -1,380 Descending Atlanta Center
05:28AM 33.1383 -83.7336 318° Northwest 382 440 14,100 -600 Descending Atlanta Center
05:29AM 33.2181 -83.8203 318° Northwest 382 440 14,000 -600 Descending Atlanta Center
05:30AM 33.2722 -83.9244 302° West 375 432 12,900 -1,500 Descending Atlanta Center
05:31AM 33.3225 -84.0339 299° West 375 432 11,100 -900 Descending Atlanta Center
05:32AM 33.3747 -84.1433 300° West 375 432 11,100 -120 Level Atlanta Center
05:33AM 33.4100 -84.2453 293° West 351 404 10,900 -1,020 Descending Atlanta Center
05:34AM 33.4350 -84.3275 290° West 314 361 9,100 -2,100 Descending Atlanta Center
05:35AM 33.4619 -84.4122 291° West 285 328 6,700 -1,860 Descending Atlanta Center
05:37AM 33.5500 -84.5667 304° West 250 288 2,900 -1,140 Descending Atlanta TRACON
05:38AM 33.6167 -84.5833 348° North 220 253 3,000 -300 Climbing Atlanta TRACON
05:39AM 33.6333 -84.5333 68° East 185 213 2,300 -840 Descending Atlanta TRACON
05:40AM 33.6333 -84.4833 90° East 162 186 1,500 -900 Descending Atlanta TRACON